Agua Nueva, Texas
Current Conditions -  °F | °C
As of 1:15 PM on Monday 20 Oct 2014 (Local Time) from KHBV Reporting Station
Broken Clouds Broken Clouds  
Wind Chill: 79°   Ceiling: 5500
Heat Index: 81°   Visibility: 10mi
Dew Point: 67°   Wind: 7mph
Humidity: 68%   Direction: 90°E
Pressure: 30"   Gusts: NA
Location:  27.0695°N, 98.7494°W
Report Text: KHBV 201815Z AUTO 09006KT 10SM SCT022 SCT027 BKN055 26/20 A3000 RMK AO2 T02610197
Loading
Personal Weather Stations






























Interactive Weather Map
Tropical Storm Tracking
New forecast layout! Learn more

10-Day Weather Forecast

Advertisements
Track Severe Weather on mobile